createdAt,value
2022-08-05T00:00:54.915Z,3.10
2022-08-05T00:03:22.235Z,2.67
2022-08-05T00:06:06.609Z,2.97
2022-08-05T00:08:37.792Z,2.22
2022-08-05T00:11:20.584Z,2.40
2022-08-05T00:13:57.960Z,2.50
2022-08-05T00:16:36.199Z,2.20
2022-08-05T00:19:12.957Z,2.42
2022-08-05T00:21:42.664Z,2.90
2022-08-05T00:24:11.262Z,2.95
2022-08-05T00:26:51.858Z,3.53
2022-08-05T00:32:13.059Z,3.63
2022-08-05T00:35:04.182Z,4.00
2022-08-05T00:37:51.018Z,3.38
2022-08-05T00:40:26.850Z,3.15
2022-08-05T00:43:02.337Z,3.70
2022-08-05T00:45:43.103Z,3.17
2022-08-05T00:48:18.477Z,3.65
2022-08-05T00:50:55.070Z,3.30
2022-08-05T00:54:00.057Z,3.53
2022-08-05T00:56:11.223Z,2.65
2022-08-05T00:58:39.344Z,2.63
2022-08-05T01:01:11.552Z,3.08
2022-08-05T01:03:40.228Z,3.22
2022-08-05T01:06:11.163Z,2.45
2022-08-05T01:08:44.314Z,3.20
2022-08-05T01:11:22.283Z,2.55
2022-08-05T01:14:02.791Z,2.58
2022-08-05T01:16:36.015Z,3.05
2022-08-05T01:19:19.794Z,2.47
2022-08-05T01:22:15.502Z,3.55
2022-08-05T01:25:40.563Z,2.65
2022-08-05T01:28:32.085Z,2.65
2022-08-05T01:31:23.136Z,2.72
2022-08-05T01:34:01.828Z,3.35
2022-08-05T01:36:34.222Z,2.75
2022-08-05T01:39:11.874Z,3.67
2022-08-05T01:41:44.412Z,3.15
2022-08-05T01:44:13.251Z,3.10
2022-08-05T01:46:46.480Z,3.40
2022-08-05T01:49:23.330Z,3.50
2022-08-05T01:51:58.428Z,3.60
2022-08-05T01:54:46.188Z,3.20
2022-08-05T01:58:12.972Z,2.88
2022-08-05T02:00:12.295Z,3.08
2022-08-05T02:02:55.163Z,3.47
2022-08-05T02:05:28.619Z,2.95
2022-08-05T02:08:01.221Z,3.10
2022-08-05T02:10:34.853Z,2.50
2022-08-05T02:13:15.715Z,3.05
2022-08-05T02:15:53.941Z,2.85
2022-08-05T02:18:31.342Z,2.22
2022-08-05T02:21:06.552Z,2.63
2022-08-05T02:23:46.356Z,2.40
2022-08-05T02:26:17.176Z,2.25
2022-08-05T02:28:47.732Z,2.20
2022-08-05T02:31:22.442Z,2.67
2022-08-05T02:33:57.997Z,2.75
2022-08-05T02:36:31.310Z,2.40
2022-08-05T02:39:01.636Z,2.50
2022-08-05T02:41:42.819Z,2.78
2022-08-05T02:44:13.560Z,2.92
2022-08-05T02:46:53.376Z,3.20
2022-08-05T02:49:27.268Z,3.08
2022-08-05T02:52:08.008Z,2.95
2022-08-05T02:54:41.258Z,3.70
2022-08-05T02:58:09.316Z,4.55
2022-08-05T03:00:04.724Z,2.88
2022-08-05T03:02:36.871Z,3.17
2022-08-05T03:05:08.483Z,3.05
2022-08-05T03:10:25.929Z,2.90
2022-08-05T03:12:54.374Z,3.13
2022-08-05T03:15:23.671Z,3.35
2022-08-05T03:17:55.870Z,3.78
2022-08-05T03:20:25.036Z,3.35
2022-08-05T03:22:53.203Z,3.30
2022-08-05T03:25:32.530Z,3.50
2022-08-05T03:28:06.046Z,3.63
2022-08-05T03:30:36.757Z,3.72
2022-08-05T03:33:07.510Z,4.55
2022-08-05T03:35:40.723Z,4.47
2022-08-05T03:38:12.235Z,4.15
2022-08-05T03:40:45.140Z,4.25
2022-08-05T03:43:15.950Z,3.45
2022-08-05T03:46:03.366Z,3.70
2022-08-05T03:48:35.393Z,3.90
2022-08-05T03:52:37.444Z,3.58
2022-08-05T03:55:51.304Z,4.05
2022-08-05T03:57:16.057Z,3.70
2022-08-05T04:00:04.756Z,4.22
2022-08-05T04:02:51.989Z,3.10
2022-08-05T04:05:26.048Z,3.50
2022-08-05T04:07:57.747Z,3.90
2022-08-05T04:10:37.153Z,3.58
2022-08-05T04:13:06.601Z,3.53
2022-08-05T04:15:36.211Z,3.47
2022-08-05T04:18:07.319Z,3.95
2022-08-05T04:20:36.866Z,5.05
2022-08-05T04:23:04.206Z,3.65
2022-08-05T04:25:56.639Z,3.78
2022-08-05T04:28:30.897Z,3.30
2022-08-05T04:31:01.085Z,3.95
2022-08-05T04:34:17.065Z,3.88
2022-08-05T04:36:45.892Z,3.95
2022-08-05T04:39:04.261Z,3.50
2022-08-05T04:41:37.286Z,3.63
2022-08-05T04:44:09.498Z,3.97
2022-08-05T04:46:38.528Z,3.70
2022-08-05T04:49:12.324Z,3.38
2022-08-05T04:51:44.864Z,3.28
2022-08-05T04:54:12.572Z,3.97
2022-08-05T04:56:40.095Z,4.07
2022-08-05T04:59:22.949Z,4.20
2022-08-05T05:02:07.436Z,3.55
2022-08-05T05:04:43.963Z,3.63
2022-08-05T05:07:12.211Z,4.43
2022-08-05T05:09:43.269Z,3.40
2022-08-05T05:12:11.839Z,4.20
2022-08-05T05:14:49.482Z,4.63
2022-08-05T05:17:23.551Z,4.05
2022-08-05T05:19:55.232Z,4.55
2022-08-05T05:22:26.488Z,4.75
2022-08-05T05:24:57.548Z,4.45
2022-08-05T05:27:45.221Z,4.10
2022-08-05T05:30:30.841Z,3.67
2022-08-05T05:33:13.859Z,4.30
2022-08-05T05:38:22.786Z,3.33
2022-08-05T05:40:57.351Z,2.85
2022-08-05T05:43:57.130Z,3.85
2022-08-05T05:46:17.709Z,3.28
2022-08-05T05:48:48.306Z,3.10
2022-08-05T05:51:23.261Z,3.90
2022-08-05T05:53:58.123Z,3.58
2022-08-05T05:56:34.425Z,3.10
2022-08-05T05:59:05.614Z,3.80
2022-08-05T06:01:38.219Z,3.15
2022-08-05T06:04:14.582Z,3.45
2022-08-05T06:06:47.393Z,2.75
2022-08-05T06:09:24.931Z,3.05
2022-08-05T06:12:01.386Z,3.55
2022-08-05T06:14:33.263Z,3.25
2022-08-05T06:17:22.301Z,3.00
2022-08-05T06:19:56.958Z,3.80
2022-08-05T06:22:33.700Z,2.80
2022-08-05T06:25:24.911Z,2.95
2022-08-05T06:28:08.908Z,4.80
2022-08-05T06:30:38.986Z,3.90
2022-08-05T06:33:10.059Z,3.03
2022-08-05T06:36:08.056Z,3.22
2022-08-05T06:38:36.799Z,3.72
2022-08-05T06:41:07.938Z,2.63
2022-08-05T06:43:51.570Z,3.30
2022-08-05T06:46:30.014Z,2.90
2022-08-05T06:48:59.772Z,3.15
2022-08-05T06:51:30.700Z,2.63
2022-08-05T06:54:00.219Z,3.00
2022-08-05T06:56:34.639Z,2.78
2022-08-05T06:59:09.520Z,2.83
2022-08-05T07:01:40.790Z,2.60
2022-08-05T07:04:10.037Z,2.78
2022-08-05T07:06:37.333Z,2.70
2022-08-05T07:09:04.989Z,2.70
2022-08-05T07:11:37.305Z,3.15
2022-08-05T07:14:29.771Z,3.47
2022-08-05T07:17:58.905Z,3.90
2022-08-05T07:20:31.471Z,3.40
2022-08-05T07:22:38.669Z,4.05
2022-08-05T07:25:23.450Z,3.22
2022-08-05T07:28:01.460Z,3.30
2022-08-05T07:30:33.991Z,2.92
2022-08-05T07:33:09.187Z,3.10
2022-08-05T07:36:02.761Z,2.83
2022-08-05T07:38:33.824Z,2.78
2022-08-05T07:41:35.006Z,3.28
2022-08-05T07:43:56.325Z,2.83
2022-08-05T07:46:26.247Z,2.97
2022-08-05T07:49:02.504Z,2.55
2022-08-05T07:51:40.950Z,3.10
2022-08-05T07:54:26.354Z,2.97
2022-08-05T07:57:13.629Z,2.72
2022-08-05T07:59:42.163Z,2.58
2022-08-05T08:02:16.446Z,2.92
2022-08-05T08:04:49.774Z,2.42
2022-08-05T08:07:22.373Z,2.63
2022-08-05T08:09:52.444Z,2.75
2022-08-05T08:12:33.540Z,2.83
2022-08-05T08:15:15.081Z,2.90
2022-08-05T08:17:46.042Z,2.40
2022-08-05T08:20:43.532Z,3.05
2022-08-05T08:24:00.351Z,3.00
2022-08-05T08:25:59.929Z,2.60
2022-08-05T08:31:06.592Z,2.70
2022-08-05T08:33:37.368Z,2.95
2022-08-05T08:36:37.584Z,2.73
2022-08-05T08:38:55.961Z,3.35
2022-08-05T08:41:51.989Z,2.78
2022-08-05T08:45:20.312Z,2.47
2022-08-05T08:47:47.333Z,2.83
2022-08-05T08:50:06.213Z,2.40
2022-08-05T08:52:55.845Z,3.05
2022-08-05T08:55:32.064Z,2.40
2022-08-05T08:58:16.961Z,2.38
2022-08-05T09:00:45.145Z,2.45
2022-08-05T09:03:16.143Z,2.60
2022-08-05T09:06:08.901Z,2.35
2022-08-05T09:08:35.654Z,2.70
2022-08-05T09:11:13.586Z,3.05
2022-08-05T09:14:09.195Z,2.90
2022-08-05T09:16:30.771Z,2.30
2022-08-05T09:18:59.629Z,3.03
2022-08-05T09:22:22.000Z,2.50
2022-08-05T09:24:15.811Z,2.55
2022-08-05T09:26:48.447Z,2.50
2022-08-05T09:29:19.904Z,2.30
2022-08-05T09:32:42.933Z,1.95
2022-08-05T09:34:54.988Z,2.17
2022-08-05T09:38:12.289Z,1.98
2022-08-05T09:40:34.521Z,2.17
2022-08-05T09:43:03.784Z,2.03
2022-08-05T09:46:06.697Z,2.20
2022-08-05T09:48:29.265Z,3.20
2022-08-05T09:50:58.970Z,2.50
2022-08-05T09:53:54.733Z,2.13
2022-08-05T09:56:28.454Z,2.85
2022-08-05T10:02:41.881Z,1.95
2022-08-05T10:05:20.931Z,2.00
2022-08-05T10:08:35.379Z,1.90
2022-08-05T10:10:53.839Z,1.23
2022-08-05T10:13:47.792Z,1.95
2022-08-05T10:16:33.832Z,1.65
2022-08-05T10:19:08.565Z,1.60
2022-08-05T10:21:40.361Z,1.65
2022-08-05T10:24:13.633Z,1.80
2022-08-05T10:26:51.298Z,1.48
2022-08-05T10:29:24.169Z,1.58
2022-08-05T10:32:52.416Z,1.70
2022-08-05T10:35:00.880Z,1.70
2022-08-05T10:37:44.444Z,2.15
2022-08-05T10:40:45.015Z,1.30
2022-08-05T10:43:36.374Z,1.88
2022-08-05T10:46:08.740Z,1.70
2022-08-05T10:49:17.098Z,2.10
2022-08-05T10:52:19.906Z,1.77
2022-08-05T10:55:05.964Z,2.03
2022-08-05T10:57:34.133Z,1.90
2022-08-05T11:00:22.828Z,1.83
2022-08-05T11:03:23.683Z,1.92
2022-08-05T11:06:08.300Z,1.67
2022-08-05T11:08:37.063Z,2.13
2022-08-05T11:11:44.915Z,1.90
2022-08-05T11:14:42.829Z,2.00
2022-08-05T11:17:59.162Z,2.03
2022-08-05T11:21:40.887Z,1.67
2022-08-05T11:27:45.783Z,1.70
2022-08-05T11:30:17.324Z,1.60
2022-08-05T11:32:44.638Z,1.70
2022-08-05T11:36:02.827Z,1.90
2022-08-05T11:38:45.721Z,1.70
2022-08-05T11:41:56.351Z,2.60
2022-08-05T11:44:21.748Z,1.50
2022-08-05T11:47:15.207Z,1.52
2022-08-05T11:49:49.574Z,1.58
2022-08-05T11:52:30.980Z,2.13
2022-08-05T11:54:59.584Z,1.70
2022-08-05T11:58:07.943Z,1.83
2022-08-05T12:00:30.376Z,1.70
2022-08-05T12:02:58.090Z,1.52
2022-08-05T12:05:36.275Z,1.73
2022-08-05T12:08:11.438Z,1.80
2022-08-05T12:10:45.826Z,1.90
2022-08-05T12:13:18.898Z,1.80
2022-08-05T12:16:14.879Z,1.60
2022-08-05T12:18:52.716Z,2.20
2022-08-05T12:21:29.899Z,1.90
2022-08-05T12:24:09.362Z,2.00
2022-08-05T12:26:52.796Z,2.28
2022-08-05T12:29:24.986Z,2.15
2022-08-05T12:31:54.484Z,1.92
2022-08-05T12:34:35.848Z,2.00
2022-08-05T12:37:29.734Z,1.95
2022-08-05T12:40:03.701Z,2.35
2022-08-05T12:42:40.896Z,1.75
2022-08-05T12:45:10.056Z,1.92
2022-08-05T12:47:38.265Z,1.88
2022-08-05T12:50:19.781Z,2.10
2022-08-05T12:52:59.431Z,2.25
2022-08-05T12:55:28.539Z,1.80
2022-08-05T12:58:52.426Z,1.83
2022-08-05T13:02:01.314Z,1.90
2022-08-05T13:03:41.823Z,2.03
2022-08-05T13:06:16.801Z,1.92
2022-08-05T13:08:52.499Z,2.00
2022-08-05T13:11:47.017Z,2.45
2022-08-05T13:14:14.797Z,2.05
2022-08-05T13:16:56.683Z,2.22
2022-08-05T13:19:27.084Z,2.10
2022-08-05T13:22:14.321Z,2.15
2022-08-05T13:24:58.076Z,1.97
2022-08-05T13:27:36.306Z,1.75
2022-08-05T13:30:32.922Z,1.98
2022-08-05T13:33:04.269Z,2.58
2022-08-05T13:35:47.566Z,1.90
2022-08-05T13:38:30.447Z,1.70
2022-08-05T13:40:59.880Z,1.98
2022-08-05T13:43:44.956Z,1.80
2022-08-05T13:46:14.043Z,1.77
2022-08-05T13:48:58.484Z,1.80
2022-08-05T13:51:30.055Z,2.08
2022-08-05T13:54:11.969Z,2.13
2022-08-05T13:56:45.389Z,2.58
2022-08-05T13:59:24.050Z,1.52
2022-08-05T14:02:00.104Z,2.70
2022-08-05T14:05:00.713Z,2.20
2022-08-05T14:08:00.139Z,1.80
2022-08-05T14:10:28.545Z,2.75
2022-08-05T14:12:56.990Z,1.77
2022-08-05T14:16:04.985Z,2.20
2022-08-05T14:18:14.937Z,1.98
2022-08-05T14:20:54.371Z,1.73
2022-08-05T14:23:26.017Z,1.95
2022-08-05T14:25:58.115Z,1.75
2022-08-05T14:28:29.783Z,1.85
2022-08-05T14:31:01.614Z,2.22
2022-08-05T14:33:32.526Z,1.98
2022-08-05T14:36:21.512Z,2.10
2022-08-05T14:38:50.324Z,1.90
2022-08-05T14:41:18.697Z,2.00
2022-08-05T14:44:02.271Z,2.10
2022-08-05T14:46:35.357Z,2.03
2022-08-05T14:49:07.558Z,3.08
2022-08-05T14:51:42.808Z,2.00
2022-08-05T14:54:29.930Z,2.63
2022-08-05T14:56:59.022Z,2.17
2022-08-05T14:59:29.811Z,2.22
2022-08-05T15:02:14.672Z,2.22
2022-08-05T15:04:43.293Z,1.70
2022-08-05T15:07:10.792Z,2.58
2022-08-05T15:09:58.137Z,2.20
2022-08-05T15:12:40.907Z,2.17
2022-08-05T15:15:16.326Z,2.03
2022-08-05T15:17:45.929Z,1.85
2022-08-05T15:20:17.164Z,1.90
2022-08-05T15:22:54.052Z,1.70
2022-08-05T15:25:51.060Z,1.80
2022-08-05T15:28:14.547Z,2.15
2022-08-05T15:30:45.513Z,2.17
2022-08-05T15:33:56.903Z,2.17
2022-08-05T15:36:04.770Z,1.80
2022-08-05T15:38:40.784Z,2.10
2022-08-05T15:41:22.229Z,1.80
2022-08-05T15:43:54.845Z,1.98
2022-08-05T15:46:24.304Z,2.00
2022-08-05T15:48:58.631Z,1.92
2022-08-05T15:52:13.375Z,2.05
2022-08-05T15:54:17.111Z,1.80
2022-08-05T15:56:44.385Z,1.77
2022-08-05T15:59:22.063Z,1.58
2022-08-05T16:01:53.284Z,1.90
2022-08-05T16:04:25.507Z,1.98
2022-08-05T16:06:56.278Z,1.92
2022-08-05T16:09:24.739Z,1.95
2022-08-05T16:11:54.204Z,2.35
2022-08-05T16:14:22.995Z,1.50
2022-08-05T16:16:50.758Z,2.05
2022-08-05T16:19:25.491Z,2.25
2022-08-05T16:22:06.766Z,2.00
2022-08-05T16:24:41.840Z,1.58
2022-08-05T16:27:18.987Z,1.65
2022-08-05T16:29:50.992Z,1.58
2022-08-05T16:32:28.393Z,1.95
2022-08-05T16:34:58.899Z,1.98
2022-08-05T16:38:16.455Z,1.88
2022-08-05T16:40:26.597Z,2.10
2022-08-05T16:46:07.691Z,2.03
2022-08-05T16:48:11.062Z,1.88
2022-08-05T16:50:53.332Z,2.00
2022-08-05T16:53:22.616Z,1.92
2022-08-05T16:55:59.274Z,1.85
2022-08-05T16:58:26.861Z,2.00
2022-08-05T17:00:54.307Z,1.88
2022-08-05T17:03:22.279Z,1.95
2022-08-05T17:05:54.327Z,1.95
2022-08-05T17:08:36.001Z,2.00
2022-08-05T17:11:17.316Z,1.80
2022-08-05T17:13:45.573Z,2.17
2022-08-05T17:16:32.614Z,1.60
2022-08-05T17:19:00.874Z,2.08
2022-08-05T17:21:35.757Z,1.92
2022-08-05T17:24:18.520Z,1.83
2022-08-05T17:26:54.044Z,1.55
2022-08-05T17:29:33.888Z,2.20
2022-08-05T17:32:11.775Z,1.73
2022-08-05T17:34:48.093Z,1.40
2022-08-05T17:37:39.755Z,2.00
2022-08-05T17:40:10.213Z,1.52
2022-08-05T17:42:42.971Z,1.33
2022-08-05T17:45:22.897Z,1.50
2022-08-05T17:47:56.098Z,1.80
2022-08-05T17:50:30.505Z,1.38
2022-08-05T17:53:00.215Z,1.65
2022-08-05T17:55:37.479Z,1.20
2022-08-05T17:58:12.665Z,1.30
2022-08-05T18:00:47.171Z,1.63
2022-08-05T18:03:55.841Z,1.63
2022-08-05T18:06:12.225Z,1.67
2022-08-05T18:08:45.292Z,1.27
2022-08-05T18:11:23.329Z,1.50
2022-08-05T18:13:52.441Z,1.30
2022-08-05T18:16:20.510Z,1.73
2022-08-05T18:18:49.857Z,1.90
2022-08-05T18:21:19.498Z,1.50
2022-08-05T18:23:48.549Z,1.40
2022-08-05T18:26:18.030Z,1.73
2022-08-05T18:28:46.486Z,1.63
2022-08-05T18:31:15.754Z,1.77
2022-08-05T18:33:47.141Z,1.35
2022-08-05T18:36:17.443Z,2.30
2022-08-05T18:38:46.844Z,1.83
2022-08-05T18:41:58.405Z,1.85
2022-08-05T18:44:06.429Z,2.00
2022-08-05T18:46:35.248Z,1.65
2022-08-05T18:49:23.716Z,2.20
2022-08-05T18:52:16.439Z,1.90
2022-08-05T18:54:45.765Z,2.42
2022-08-05T18:57:15.322Z,2.28
2022-08-05T19:00:01.734Z,2.45
2022-08-05T19:02:30.224Z,2.22
2022-08-05T19:05:03.012Z,2.10
2022-08-05T19:07:49.603Z,2.40
2022-08-05T19:10:28.480Z,2.20
2022-08-05T19:12:57.219Z,2.55
2022-08-05T19:15:56.582Z,2.53
2022-08-05T19:18:22.342Z,2.38
2022-08-05T19:20:54.288Z,2.20
2022-08-05T19:24:06.102Z,2.55
2022-08-05T19:26:11.230Z,2.28
2022-08-05T19:28:43.447Z,2.85
2022-08-05T19:31:13.693Z,3.40
2022-08-05T19:33:48.340Z,3.03
2022-08-05T19:36:29.403Z,2.75
2022-08-05T19:39:01.117Z,2.50
2022-08-05T19:42:05.549Z,2.60
2022-08-05T19:44:18.890Z,3.08
2022-08-05T19:46:47.143Z,2.65
2022-08-05T19:49:18.056Z,2.88
2022-08-05T19:52:09.062Z,2.70
2022-08-05T19:54:34.727Z,2.83
2022-08-05T19:57:06.520Z,2.42
2022-08-05T19:59:55.339Z,2.55
2022-08-05T20:02:25.023Z,2.63
2022-08-05T20:04:55.311Z,2.50
2022-08-05T20:07:45.817Z,2.42
2022-08-05T20:10:11.681Z,2.50
2022-08-05T20:12:47.966Z,2.50
2022-08-05T20:15:47.885Z,2.60
2022-08-05T20:18:10.936Z,2.75
2022-08-05T20:20:56.581Z,2.83
2022-08-05T20:23:39.324Z,3.00
2022-08-05T20:26:15.186Z,2.20
2022-08-05T20:28:51.440Z,2.83
2022-08-05T20:31:28.326Z,2.67
2022-08-05T20:34:04.491Z,2.65
2022-08-05T20:36:31.767Z,2.83
2022-08-05T20:39:00.071Z,2.50
2022-08-05T20:41:44.605Z,3.10
2022-08-05T20:44:17.804Z,3.00
2022-08-05T20:46:57.791Z,2.72
2022-08-05T20:49:26.039Z,2.67
2022-08-05T20:51:55.077Z,3.08
2022-08-05T20:54:25.339Z,3.30
2022-08-05T20:56:53.259Z,3.00
2022-08-05T20:59:26.549Z,3.05
2022-08-05T21:01:56.475Z,2.85
2022-08-05T21:04:26.989Z,3.03
2022-08-05T21:06:54.997Z,2.78
2022-08-05T21:09:23.167Z,2.92
2022-08-05T21:11:51.737Z,3.20
2022-08-05T21:14:36.159Z,3.03
2022-08-05T21:17:05.213Z,3.20
2022-08-05T21:19:47.375Z,3.08
2022-08-05T21:22:23.272Z,3.03
2022-08-05T21:24:52.645Z,3.17
2022-08-05T21:27:25.217Z,3.63
2022-08-05T21:29:54.139Z,3.20
2022-08-05T21:32:26.644Z,3.17
2022-08-05T21:35:16.767Z,3.10
2022-08-05T21:37:47.468Z,3.20
2022-08-05T21:40:23.188Z,2.90
2022-08-05T21:42:53.499Z,3.25
2022-08-05T21:45:24.569Z,2.97
2022-08-05T21:48:06.446Z,3.03
2022-08-05T21:50:36.735Z,3.03
2022-08-05T21:53:16.578Z,3.55
2022-08-05T21:56:04.492Z,3.35
2022-08-05T21:58:32.872Z,3.08
2022-08-05T22:01:00.456Z,3.50
2022-08-05T22:03:48.588Z,3.08
2022-08-05T22:06:22.776Z,3.35
2022-08-05T22:08:52.492Z,3.55
2022-08-05T22:11:34.907Z,3.08
2022-08-05T22:14:33.775Z,3.20
2022-08-05T22:16:57.062Z,3.03
2022-08-05T22:20:00.502Z,3.30
2022-08-05T22:22:15.908Z,2.83
2022-08-05T22:25:01.874Z,3.08
2022-08-05T22:28:10.557Z,3.28
2022-08-05T22:30:35.054Z,3.17
2022-08-05T22:33:15.651Z,3.53
2022-08-05T22:35:48.740Z,4.10
2022-08-05T22:38:18.998Z,3.97
2022-08-05T22:40:49.898Z,3.38
2022-08-05T22:43:36.713Z,3.95
2022-08-05T22:46:11.980Z,3.38
2022-08-05T22:48:41.965Z,3.03
2022-08-05T22:51:22.499Z,3.90
2022-08-05T22:53:51.865Z,4.50
2022-08-05T22:56:30.112Z,3.03
2022-08-05T22:59:00.032Z,3.40
2022-08-05T23:02:03.805Z,2.83
2022-08-05T23:04:18.189Z,3.42
2022-08-05T23:06:45.527Z,3.70
2022-08-05T23:09:27.941Z,3.45
2022-08-05T23:12:03.700Z,3.38
2022-08-05T23:14:32.188Z,3.90
2022-08-05T23:17:24.245Z,3.30
2022-08-05T23:19:56.369Z,3.13
2022-08-05T23:22:27.440Z,3.33
2022-08-05T23:24:55.603Z,3.50
2022-08-05T23:27:24.107Z,3.35
2022-08-05T23:32:23.719Z,3.38
2022-08-05T23:34:51.139Z,3.53
2022-08-05T23:37:18.456Z,4.22
2022-08-05T23:39:54.212Z,3.47
2022-08-05T23:42:29.037Z,3.53
2022-08-05T23:44:57.239Z,3.47
2022-08-05T23:47:25.084Z,3.85
2022-08-05T23:49:56.465Z,3.53
2022-08-05T23:52:27.545Z,3.45
2022-08-05T23:54:57.436Z,4.10
2022-08-05T23:57:28.336Z,4.45
